Latest Weather Observations for Parawa West

IDS60801

Issued at 12:01 pm CDT Sunday 22 January 2017 (issued every 30 minutes, with the page automatically refreshed every 10 minutes)

About weather observations | Map of weather stations | Latest weather observations for SA | Other Formats
Station Details ID: 023875 Name: SECOND VALLEY FOREST AWS Lat: -35.57 Lon: 138.29 Height: 341.0 m
Data from the previous 72 hours. | See also: Recent months at Parawa West
Date/Time
CDT
Temp
°C
App
Temp
°C
Dew
Point
°C
Rel
Hum
%
Delta-T
°C
Wind Press
QNH
hPa
Press
MSL
hPa
Rain since
9am
mm
Dir  Spd
km/h
Gust
km/h
Spd
kts
Gust
kts
22/12:00pm 27.0 25.0 6.4 27 11.0 NW 6 11 3 6 - 1011.8 -
22/11:30am 26.0 24.0 7.1 30 10.1 NW 7 19 4 10 1013.0 1011.9 0.0
22/11:00am 25.4 23.0 7.1 31 9.8 NNW 9 19 5 10 1013.3 1012.3 0.0
22/10:30am 24.6 22.9 7.7 34 9.1 NW 6 11 3 6 1013.4 1012.4 0.0
22/10:00am 24.8 23.5 9.1 37 8.6 WNW 6 17 3 9 1013.3 1012.3 0.0
22/09:30am 23.4 22.3 10.1 43 7.4 ENE 6 15 3 8 1013.5 1012.5 0.0
22/09:00am 22.4 21.7 10.2 46 6.8 W 4 6 2 3 1013.9 1012.9 0.0
22/08:30am 21.4 20.6 9.6 47 6.4 NNE 4 13 2 7 1013.9 1012.9 0.0
22/08:00am 19.5 19.5 11.0 58 4.7 NE 2 2 1 1 1013.6 1012.6 0.0
22/07:30am 19.0 17.3 11.1 60 4.4 NE 11 15 6 8 1013.3 1012.3 0.0
22/07:00am 18.5 16.6 10.6 60 4.3 NE 11 15 6 8 1012.9 1011.8 0.0
22/06:30am 18.7 15.2 10.3 58 4.6 ENE 19 24 10 13 1012.6 1011.5 0.0
22/06:00am 18.8 14.9 10.9 60 4.4 NE 22 28 12 15 1012.5 1011.4 0.0
22/05:30am 18.2 14.9 11.7 66 3.6 NE 20 28 11 15 1012.5 1011.4 0.0
22/05:00am 17.7 14.6 12.2 70 3.1 NE 20 30 11 16 1012.5 1011.4 0.0
22/04:30am 17.1 13.7 12.6 75 2.5 NE 22 30 12 16 1012.5 1011.4 0.0
22/04:00am 16.5 13.8 13.0 80 2.0 ENE 19 28 10 15 1012.7 1011.6 0.0
22/03:30am 15.5 13.2 13.0 85 1.4 ENE 17 20 9 11 1012.8 1011.7 0.0
22/03:00am 15.2 13.3 13.1 87 1.2 ENE 15 19 8 10 1013.2 1012.2 0.0
22/02:30am 15.2 12.4 13.1 87 1.2 E 20 28 11 15 1013.5 1012.5 0.0
22/02:00am 14.9 12.2 12.8 87 1.2 E 19 26 10 14 1013.9 1012.9 0.0
22/01:30am 14.9 12.2 12.9 88 1.1 E 19 24 10 13 1014.2 1013.1 0.0
22/01:00am 14.7 12.3 13.7 94 0.6 E 19 24 10 13 1014.2 1013.1 0.0
22/12:30am 14.6 11.9 13.6 94 0.6 E 20 26 11 14 1014.3 1013.2 0.0
22/12:00am 14.4 11.8 13.8 96 0.3 ESE 20 28 11 15 1014.6 1013.5 0.0
 
Date/Time
CDT
Temp
°C
App
Temp
°C
Dew
Point
°C
Rel
Hum
%
Delta-T
°C
Wind Press
QNH
hPa
Press
MSL
hPa
Rain since
9am
mm
Dir  Spd
km/h
Gust
km/h
Spd
kts
Gust
kts
21/11:30pm 14.6 11.7 14.0 96 0.3 ESE 22 30 12 16 1014.7 1013.6 0.0
21/11:00pm 14.5 11.9 13.9 96 0.3 SE 20 26 11 14 1015.1 1014.0 0.0
21/10:30pm 14.4 11.7 13.4 94 0.6 SE 20 26 11 14 1015.5 1014.4 0.0
21/10:00pm 14.5 12.0 13.4 93 0.6 SE 19 22 10 12 1015.6 1014.5 0.0
21/09:30pm 14.8 11.7 13.3 91 0.8 SE 22 26 12 14 1015.5 1014.4 0.0
21/09:00pm 14.9 12.2 12.9 88 1.1 SE 19 24 10 13 1015.6 1014.5 0.0
21/08:30pm 15.2 12.4 12.7 85 1.4 SSE 19 24 10 13 1015.6 1014.5 0.0
21/08:00pm 15.9 12.9 12.6 81 1.8 SSE 20 26 11 14 1015.4 1014.3 0.0
21/07:30pm 16.4 13.1 12.9 80 2.0 SSE 22 28 12 15 1014.9 1013.8 0.0
21/07:00pm 16.8 13.5 12.9 78 2.2 SSE 22 30 12 16 1014.6 1013.5 0.0
21/06:30pm 17.5 14.2 12.8 74 2.7 SSE 22 26 12 14 1014.4 1013.3 0.0
21/06:00pm 17.5 14.5 12.4 72 2.9 SSE 20 26 11 14 1014.4 1013.3 0.0
21/05:30pm 18.1 14.8 12.8 71 3.0 SSE 22 28 12 15 1014.5 1013.4 0.0
21/05:00pm 18.5 15.7 12.5 68 3.4 SSE 19 24 10 13 1014.5 1013.4 0.0
21/04:30pm 18.7 15.7 12.5 67 3.5 SSE 20 24 11 13 1014.7 1013.6 0.0
21/04:00pm 19.4 16.6 13.1 67 3.6 SSE 20 30 11 16 1014.8 1013.7 0.0
21/03:30pm 19.6 16.8 12.6 64 4.0 SE 19 26 10 14 1014.8 1013.7 0.0
21/03:00pm 20.7 17.9 12.7 60 4.6 SE 19 24 10 13 1014.8 1013.7 0.0
21/02:30pm 21.0 18.5 12.2 57 5.0 E 17 24 9 13 1014.8 1013.7 0.0
21/02:00pm 21.7 19.5 6.4 37 7.9 ENE 7 17 4 9 1015.0 1013.9 0.0
21/01:30pm 20.8 18.5 7.4 42 7.0 NNE 9 17 5 9 1015.3 1014.2 0.0
21/01:00pm 20.1 18.2 9.1 49 5.9 ENE 9 19 5 10 1015.4 1014.3 0.0
21/12:30pm 19.8 18.3 9.1 50 5.7 NE 7 19 4 10 1015.5 1014.4 0.0
21/12:00pm 19.4 18.3 10.7 57 4.8 NE 7 13 4 7 1015.4 1014.3 0.0
21/11:30am 18.8 16.8 11.6 63 4.0 E 13 20 7 11 1015.4 1014.3 0.0
21/11:00am 17.6 15.0 10.7 64 3.8 ESE 15 19 8 10 1015.7 1014.7 0.0
21/10:30am 17.1 15.2 11.8 71 2.9 E 13 19 7 10 1016.0 1015.0 0.0
21/10:00am 16.5 14.2 11.6 73 2.7 ESE 15 19 8 10 1016.0 1015.0 0.0
21/09:30am 15.6 13.1 11.0 74 2.5 E 15 20 8 11 1016.1 1015.1 0.0
21/09:00am 14.7 13.6 11.8 83 1.6 E 9 13 5 7 1016.2 1015.2 0.0
21/08:30am 15.2 12.7 11.2 77 2.2 ESE 15 19 8 10 1015.8 1014.8 0.0
21/08:00am 14.7 11.9 11.3 80 1.8 ESE 17 24 9 13 1015.2 1014.1 0.0
21/07:30am 13.9 11.1 11.2 84 1.5 ESE 17 20 9 11 1014.8 1013.7 0.0
21/07:00am 13.3 10.9 11.5 89 1.0 ESE 15 20 8 11 1014.6 1013.5 0.0
21/06:30am 12.1 10.4 10.0 87 1.1 ESE 9 13 5 7 1014.4 1013.3 0.0
21/06:00am - - - - - SE 13 15 7 8 1014.3 1013.2 0.0
21/05:30am 12.5 9.7 9.9 84 1.4 ESE 15 19 8 10 1013.9 1012.9 0.0
21/05:00am 12.1 9.7 10.0 87 1.1 SE 13 17 7 9 1013.8 1012.8 0.0
21/04:30am 12.6 10.3 10.3 86 1.2 SE 13 19 7 10 1013.5 1012.5 0.0
21/04:00am 12.6 10.1 9.8 83 1.5 SE 13 19 7 10 1013.7 1012.7 0.0
21/03:30am 13.2 10.6 9.5 78 1.9 SE 13 19 7 10 1013.6 1012.6 0.0
21/03:00am 13.5 10.8 10.3 81 1.7 SE 15 20 8 11 1013.4 1012.4 0.0
21/02:30am 13.8 11.4 10.2 79 1.9 SE 13 17 7 9 1013.6 1012.6 0.0
21/02:00am 13.8 10.8 10.6 81 1.7 SSE 17 22 9 12 1013.6 1012.6 0.0
21/01:30am 13.9 11.2 10.5 80 1.8 SE 15 22 8 12 1013.6 1012.6 0.0
21/01:00am 13.5 10.4 10.3 81 1.7 SSE 17 22 9 12 1013.6 1012.6 0.0
21/12:30am 13.7 10.0 10.3 80 1.8 SSE 20 28 11 15 1013.3 1012.3 0.0
21/12:00am 13.8 10.3 11.0 83 1.5 SSE 20 28 11 15 1013.2 1012.2 0.0
 
Date/Time
CDT
Temp
°C
App
Temp
°C
Dew
Point
°C
Rel
Hum
%
Delta-T
°C
Wind Press
QNH
hPa
Press
MSL
hPa
Rain since
9am
mm
Dir  Spd
km/h
Gust
km/h
Spd
kts
Gust
kts
20/11:30pm 13.9 10.1 11.2 84 1.5 SSE 22 30 12 16 1012.9 1011.8 0.0
20/11:00pm 13.7 9.9 11.0 84 1.4 SSE 22 28 12 15 1012.6 1011.5 0.0
20/10:30pm 13.6 9.6 10.6 82 1.6 SSE 22 33 12 18 1012.3 1011.2 0.0
20/10:00pm 13.8 10.0 11.0 83 1.5 SSE 22 32 12 17 1012.1 1011.0 0.0
20/09:30pm 13.7 9.3 10.5 81 1.7 SSE 24 33 13 18 1011.7 1010.6 0.0
20/09:00pm 13.7 9.4 10.7 82 1.6 SSE 24 32 13 17 1011.4 1010.3 0.0
20/08:30pm 13.8 9.6 11.0 83 1.5 SSE 24 32 13 17 1011.3 1010.2 0.0
20/08:00pm 14.2 10.1 11.4 83 1.5 SSE 24 32 13 17 1011.1 1010.0 0.0
20/07:30pm 14.6 10.4 11.2 80 1.8 SSE 24 30 13 16 1010.7 1009.7 0.0
20/07:00pm 15.1 10.6 11.5 79 2.0 SSE 26 33 14 18 1010.5 1009.5 0.0
20/06:30pm 15.9 11.6 12.1 78 2.1 SSE 26 33 14 18 1010.3 1009.2 0.0
20/06:00pm 15.1 10.2 11.3 78 2.1 SSE 28 39 15 21 1010.1 1009.0 0.0
20/05:30pm 15.2 10.6 11.2 77 2.2 SSE 26 35 14 19 1010.2 1009.1 0.0
20/05:00pm 15.4 10.9 11.4 77 2.2 SSE 26 37 14 20 1010.3 1009.2 0.0
20/04:30pm 16.6 11.8 11.5 72 2.8 SSE 28 37 15 20 1009.9 1008.8 0.0
20/04:00pm 16.4 11.8 12.2 76 2.3 SSE 28 35 15 19 1009.8 1008.7 0.0
20/03:30pm 16.6 12.3 12.2 75 2.5 S 26 33 14 18 1009.6 1008.5 0.0
20/03:00pm 16.2 11.0 11.6 74 2.5 SSE 30 39 16 21 1009.3 1008.2 0.0
20/02:30pm 16.1 10.3 11.5 74 2.5 SSE 33 43 18 23 1008.9 1007.8 0.0
20/02:00pm 16.7 12.0 13.2 80 2.0 S 30 37 16 20 1009.0 1007.9 0.0
20/01:30pm 15.6 10.8 11.6 77 2.2 SSE 28 39 15 21 1008.7 1007.6 0.0
20/01:00pm 16.2 11.0 12.7 80 2.0 SSE 32 43 17 23 1008.6 1007.5 0.0
20/12:30pm 15.7 9.6 11.7 77 2.2 SSE 35 46 19 25 1008.3 1007.2 0.0
20/12:00pm 15.2 9.2 12.2 82 1.7 S 35 46 19 25 1007.9 1006.9 0.0
20/11:30am 15.1 8.9 12.6 85 1.4 S 37 48 20 26 1007.3 1006.2 0.0
20/11:00am 15.0 7.5 12.0 82 1.7 S 43 56 23 30 1006.8 1005.7 0.0
20/10:30am 14.4 7.7 12.4 88 1.1 S 39 52 21 28 1006.7 1005.6 0.0
20/10:00am 14.1 8.4 13.0 93 0.6 S 35 50 19 27 1006.2 1005.1 0.0
20/09:30am 14.6 8.2 13.3 92 0.7 S 39 50 21 27 1006.0 1004.9 0.0
20/09:00am 14.1 8.2 12.3 89 1.0 S 35 50 19 27 1005.6 1004.5 25.8
20/08:30am 14.0 9.2 12.9 93 0.6 S 30 44 16 24 1005.1 1003.9 25.8
20/08:00am 13.7 9.3 12.8 94 0.5 SSW 28 44 15 24 1004.4 1003.3 25.8
20/07:30am 13.5 8.4 13.0 97 0.3 S 32 44 17 24 1003.8 1002.7 25.4
20/07:00am 13.7 9.1 13.5 99 0.1 S 30 41 16 22 1003.0 1001.9 25.4
20/06:30am 14.0 10.7 14.0 100 0.0 S 24 39 13 21 1002.8 1001.6 25.4
20/06:00am 14.0 10.0 14.0 100 0.0 SSW 28 48 15 26 1002.2 1001.0 25.4
20/05:39am 14.4 10.5 14.4 100 0.0 SSW 28 46 15 25 1001.7 1000.6 25.4
20/05:30am 14.6 11.5 14.6 100 0.0 SSW 24 37 13 20 1001.5 1000.4 25.4
20/05:00am 15.2 11.6 15.2 100 0.0 SW 28 43 15 23 1000.8 999.7 25.4
20/04:30am 15.6 13.6 15.6 100 0.0 SW 20 32 11 17 1000.6 999.5 25.4
20/04:00am 15.9 14.3 15.9 100 0.0 WSW 19 30 10 16 1000.2 999.0 25.4
20/03:30am 16.2 15.8 16.2 100 0.0 W 13 20 7 11 999.5 998.3 25.4
20/03:00am 16.2 15.4 16.2 100 0.0 WNW 15 20 8 11 999.1 997.9 25.4
20/02:30am 15.5 16.0 15.5 100 0.0 NW 7 11 4 6 999.4 998.2 25.4
20/02:00am 15.3 15.7 15.3 100 0.0 NNE 7 11 4 6 999.1 997.9 25.4
20/01:30am 15.2 14.1 15.2 100 0.0 E 15 20 8 11 998.5 997.4 25.0
20/01:00am 14.8 12.2 14.8 100 0.0 E 22 30 12 16 999.6 998.4 22.6
20/12:30am 14.8 11.4 14.8 100 0.0 SE 26 35 14 19 1000.1 998.9 21.6
20/12:00am 14.9 9.8 14.9 100 0.0 SSE 35 48 19 26 1000.2 999.0 17.6
 
Date/Time
CDT
Temp
°C
App
Temp
°C
Dew
Point
°C
Rel
Hum
%
Delta-T
°C
Wind Press
QNH
hPa
Press
MSL
hPa
Rain since
9am
mm
Dir  Spd
km/h
Gust
km/h
Spd
kts
Gust
kts
19/11:30pm 15.9 12.2 15.9 100 0.0 S 30 39 16 21 1001.6 1000.5 13.6
19/11:00pm 15.8 11.6 15.8 100 0.0 SSE 32 43 17 23 1001.3 1000.2 13.6
19/10:30pm 16.0 11.9 16.0 100 0.0 S 32 41 17 22 1001.0 999.9 13.6
19/10:00pm 16.5 13.7 16.3 99 0.1 SSW 26 37 14 20 1001.1 1000.0 13.0
19/09:30pm 19.6 19.9 17.9 90 1.1 WSW 13 32 7 17 1001.3 1000.2 10.2
19/09:00pm 20.9 22.0 19.7 93 0.8 NW 13 20 7 11 1001.0 999.9 8.8
19/08:35pm 22.8 23.1 17.9 74 3.1 N 13 24 7 13 999.6 998.4 3.2
19/08:30pm 25.4 24.7 16.5 58 5.6 NE 15 20 8 11 997.3 996.1 2.4
19/08:00pm 25.6 25.9 18.8 66 4.4 NE 15 24 8 13 997.5 996.3 2.2
19/07:46pm 23.9 24.6 16.2 62 4.8 NE 7 17 4 9 997.8 996.7 2.2
19/07:30pm 29.0 26.5 12.4 36 9.9 ENE 17 22 9 12 997.9 996.8 0.2
19/07:00pm 28.9 26.4 12.3 36 9.8 ENE 17 20 9 11 998.6 997.5 0.2
19/06:30pm 29.3 27.7 12.7 36 10.0 ENE 13 17 7 9 999.8 998.6 0.2
19/06:00pm 29.8 27.5 11.8 33 10.7 NE 15 24 8 13 1000.0 998.8 0.2
19/05:30pm 31.1 28.2 12.9 32 11.0 ENE 20 28 11 15 1000.1 998.9 0.2
19/05:00pm 30.5 27.1 12.4 33 10.8 ENE 22 28 12 15 1001.1 1000.0 0.2
19/04:30pm 30.6 28.2 12.5 33 10.9 ENE 17 26 9 14 1002.0 1000.8 0.2
19/04:00pm 29.8 27.8 12.7 35 10.2 ENE 15 22 8 12 1003.1 1002.0 0.2
19/03:30pm 29.8 28.4 12.3 34 10.4 ENE 11 19 6 10 1004.2 1003.1 0.2
19/03:00pm 29.7 28.8 12.6 35 10.2 ENE 9 19 5 10 1005.0 1003.8 0.2
19/02:30pm 29.7 29.2 12.6 35 10.2 NE 7 13 4 7 1005.7 1004.6 0.2
19/02:00pm 27.3 26.5 12.9 41 8.6 ENE 9 15 5 8 1006.3 1005.2 0.2
19/01:30pm 23.7 23.0 13.3 52 6.1 NE 9 17 5 9 1006.9 1005.8 0.2
19/01:00pm 20.4 19.5 12.6 61 4.5 NE 9 15 5 8 1007.2 1006.1 0.2
19/12:30pm 19.6 18.3 11.4 59 4.6 NE 9 15 5 8 1007.7 1006.6 0.0

Other Formats:

Comma delimited format used in spreadsheet applications
http://www.bom.gov.au/fwo/IDS60801/IDS60801.94811.axf

JavaScript Object Notation format (JSON) in row-major order
http://www.bom.gov.au/fwo/IDS60801/IDS60801.94811.json